Terminal Aerodrome Forecast
Issued by NWS

Home | Current Version | Previous Version | Text Only | Print | Product List | Glossary On
Versions: 1 2 3 4 5 6 7 8 9 10 11 12 13 14 15 16 17 18
000
FTUS43 KICT 261139
TAFHUT
TAF
KHUT 261139Z 2612/2712 35014KT P6SM SCT009 OVC015
      TEMPO 2612/2615 BKN008 OVC015
     FM270100 33012KT P6SM VCSH SCT008 BKN015
     FM270600 33015KT P6SM SCT020 BKN035=

USA.gov is the U.S. government's official web portal to all federal, state and local government web resources and services.